Time;durP1;ratioP1;P1;durP2;ratioP2;P2;SDS_P1;SDS_P2;PMS_P1;PMS_P2;Temp;Humidity;BMP_temperature;BMP_pressure;BME280_temperature;BME280_humidity;BME280_pressure;Samples;Min_cycle;Max_cycle;Signal;HPM_P1;HPM_P2
2022/12/25 00:01:14;;;;;;;26.40;15.90;;;231.00;2252.80;;;;;;5061413;28;20489;-80
2022/12/25 00:03:39;;;;;;;26.20;16.42;;;231.00;2252.80;;;;;;5026945;28;20025;-82
2022/12/25 00:06:05;;;;;;;29.25;15.35;;;231.10;2252.80;;;;;;5027478;28;20036;-82
2022/12/25 00:08:32;;;;;;;29.08;16.65;;;231.10;2252.80;;;;;;5027555;28;20022;-82
2022/12/25 00:11:03;;;;;;;33.92;17.25;;;231.00;2252.80;;;;;;5026266;28;20113;-81
2022/12/25 00:13:29;;;;;;;31.90;18.83;;;230.90;2252.80;;;;;;5025983;28;20431;-82
2022/12/25 00:15:55;;;;;;;33.15;18.60;;;231.00;2252.80;;;;;;5025959;28;20072;-80
2022/12/25 00:18:21;;;;;;;31.63;17.98;;;230.90;2252.80;;;;;;5027089;28;20108;-81
2022/12/25 00:20:58;;;;;;;30.08;18.42;;;230.90;2252.80;;;;;;5033693;28;20182;-81
2022/12/25 00:23:25;;;;;;;27.98;17.83;;;230.90;2252.80;;;;;;5027969;28;20038;-81
2022/12/25 00:25:52;;;;;;;30.92;18.00;;;230.90;2252.80;;;;;;5021297;28;20038;-79
2022/12/25 00:28:18;;;;;;;37.22;18.85;;;230.90;2252.80;;;;;;5024177;28;20030;-80
2022/12/25 00:30:44;;;;;;;29.30;17.77;;;230.90;2252.80;;;;;;5028021;28;20026;-79
2022/12/25 00:33:10;;;;;;;28.52;18.60;;;230.90;2252.80;;;;;;5023282;28;20028;-81
2022/12/25 00:35:36;;;;;;;33.70;18.42;;;230.90;2252.80;;;;;;5029883;28;20486;-78
2022/12/25 00:38:01;;;;;;;40.30;24.15;;;231.00;2252.80;;;;;;5036014;28;20037;-81
2022/12/25 00:40:27;;;;;;;;;;;230.90;2252.80;;;;;;5031928;28;20105;-81
2022/12/25 00:42:53;;;;;;;33.83;19.58;;;231.00;2252.80;;;;;;5059855;28;19928;-81
2022/12/25 00:45:18;;;;;;;;;;;230.90;2252.80;;;;;;5027552;28;20108;-81
2022/12/25 00:47:44;;;;;;;29.15;18.20;;;231.00;2252.80;;;;;;5029150;28;19967;-81
2022/12/25 00:50:10;;;;;;;;;;;231.00;2252.80;;;;;;5027008;28;20052;-81
2022/12/25 00:52:36;;;;;;;31.75;18.80;;;231.00;2252.80;;;;;;5059838;28;19913;-81
2022/12/25 00:55:01;;;;;;;;;;;231.00;2252.80;;;;;;5026737;28;20530;-82
2022/12/25 00:57:27;;;;;;;31.25;18.92;;;231.00;2252.80;;;;;;5058011;28;19956;-81
2022/12/25 00:59:53;;;;;;;;;;;231.00;2252.80;;;;;;5025217;28;20478;-82
2022/12/25 01:02:24;;;;;;;33.00;21.05;;;231.00;2252.80;;;;;;5059595;28;19944;-81
2022/12/25 01:04:55;;;;;;;40.10;22.83;;;231.00;2252.80;;;;;;5023489;28;20449;-80
2022/12/25 01:07:23;;;;;;;33.83;21.95;;;231.00;2252.80;;;;;;5026120;28;20029;-79
2022/12/25 01:12:36;;;;;;;37.33;24.52;;;230.90;2252.80;;;;;;5024248;28;20041;-80
2022/12/25 01:15:04;;;;;;;41.75;23.15;;;230.90;2252.80;;;;;;5025186;28;20022;-81
2022/12/25 01:17:30;;;;;;;32.15;19.85;;;230.90;2252.80;;;;;;5024912;28;20065;-81
2022/12/25 01:19:56;;;;;;;32.00;19.17;;;230.90;2252.80;;;;;;5023226;28;20049;-79
2022/12/25 01:22:21;;;;;;;;;;;230.90;2252.80;;;;;;5026317;28;20032;-80
2022/12/25 01:24:47;;;;;;;32.28;19.45;;;230.90;2252.80;;;;;;5058100;28;19916;-81
2022/12/25 01:27:12;;;;;;;;;;;230.90;2252.80;;;;;;5028118;28;20033;-83
2022/12/25 01:29:38;;;;;;;33.15;19.63;;;231.00;2252.80;;;;;;5055328;28;19913;-81
2022/12/25 01:32:04;;;;;;;32.25;19.35;;;231.00;2252.80;;;;;;5023746;28;20022;-80
2022/12/25 01:34:30;;;;;;;36.75;20.83;;;231.00;2252.80;;;;;;5024763;28;20040;-81
2022/12/25 01:36:56;;;;;;;34.17;20.85;;;230.90;2252.80;;;;;;5025899;28;20033;-80
2022/12/25 01:39:22;;;;;;;32.28;19.20;;;231.00;2252.80;;;;;;5025784;28;20466;-80
2022/12/25 01:41:48;;;;;;;30.70;18.45;;;231.00;2252.80;;;;;;5023814;28;20041;-81
2022/12/25 01:44:13;;;;;;;;;;;231.00;2252.80;;;;;;5027953;28;20026;-81
2022/12/25 01:46:40;;;;;;;33.63;18.35;;;231.00;2252.80;;;;;;5026183;28;19905;-81
2022/12/25 01:49:12;;;;;;;33.00;19.98;;;231.00;2252.80;;;;;;5023405;28;20521;-81
2022/12/25 01:51:39;;;;;;;37.20;19.38;;;231.00;2252.80;;;;;;5023162;28;20030;-81
2022/12/25 01:54:11;;;;;;;33.75;19.95;;;231.00;2252.80;;;;;;5023238;28;20089;-81
2022/12/25 01:56:37;;;;;;;31.30;19.45;;;231.00;2252.80;;;;;;5026541;28;20049;-80
2022/12/25 01:59:05;;;;;;;28.58;18.27;;;231.00;2252.80;;;;;;5025845;28;20021;-81
2022/12/25 02:01:31;;;;;;;31.50;18.98;;;231.00;2252.80;;;;;;5025990;28;20025;-81
2022/12/25 02:04:05;;;;;;;39.10;21.52;;;231.00;2252.80;;;;;;5023754;28;20133;-79
2022/12/25 02:06:33;;;;;;;32.05;18.75;;;230.90;2252.80;;;;;;5055790;28;20029;-80
2022/12/25 02:08:59;;;;;;;33.90;19.95;;;230.80;2252.80;;;;;;5022561;28;20117;-81
2022/12/25 02:14:09;;;;;;;31.40;19.83;;;230.50;2252.80;;;;;;5026845;28;20029;-81
2022/12/25 02:16:40;;;;;;;38.65;23.60;;;230.50;2252.80;;;;;;5024122;28;20034;-81
2022/12/25 02:19:32;;;;;;;38.60;22.90;;;230.60;2252.80;;;;;;5023020;28;20088;-81
2022/12/25 02:21:58;;;;;;;28.17;18.83;;;230.70;2252.80;;;;;;5017054;28;20029;-81
2022/12/25 02:24:43;;;;;;;;;;;230.80;2252.80;;;;;;5033029;28;20528;-79
2022/12/25 02:27:41;;;;;;;28.50;17.92;;;230.80;2252.80;;;;;;5056765;28;19909;-80
2022/12/25 02:30:08;;;;;;;32.38;19.23;;;230.80;2252.80;;;;;;5019360;28;20025;-79
2022/12/25 02:32:42;;;;;;;29.58;18.75;;;230.80;2252.80;;;;;;5024189;28;20025;-81
2022/12/25 02:35:24;;;;;;;30.20;19.88;;;230.80;2252.80;;;;;;5034592;28;20021;-78
2022/12/25 02:38:03;;;;;;;28.70;18.60;;;230.90;2252.80;;;;;;5028384;28;20029;-78
2022/12/25 02:40:48;;;;;;;37.58;19.38;;;230.90;2252.80;;;;;;5029272;28;20025;-79
2022/12/25 03:06:57;;;;;;;27.85;16.55;;;230.80;2252.80;;;;;;5019027;28;20064;-81
2022/12/25 03:11:29;;;;;;;;;;;230.70;2252.80;;;;;;5028602;28;20397;-80
2022/12/25 03:11:49;;;;;;;25.92;16.88;;;230.40;2252.80;;;;;;5025033;28;19905;-82
2022/12/25 03:16:59;;;;;;;32.90;17.65;;;205.30;2252.80;;;;;;5028683;28;20520;-81
2022/12/25 03:27:57;;;;;;;22.60;15.18;;;204.80;2252.80;;;;;;5030395;28;20528;-78
2022/12/25 03:33:18;;;;;;;29.58;16.27;;;180.10;2252.80;;;;;;5019288;28;20090;-81
2022/12/25 03:36:05;;;;;;;27.33;17.02;;;204.80;2252.80;;;;;;5016172;28;20084;-81
2022/12/25 04:36:53;;;;;;;22.23;14.15;;;180.00;2252.80;;;;;;5024053;28;20037;-78
2022/12/25 04:39:19;;;;;;;;;;;180.00;2252.80;;;;;;5018191;28;20022;-80
2022/12/25 04:41:44;;;;;;;21.80;13.60;;;180.10;2252.80;;;;;;5021861;28;19909;-81
2022/12/25 04:44:10;;;;;;;;;;;180.00;2252.80;;;;;;5021699;28;20038;-80
2022/12/25 04:46:36;;;;;;;21.02;13.07;;;180.10;2252.80;;;;;;5023000;28;19909;-78
2022/12/25 04:49:02;;;;;;;24.90;13.65;;;180.10;2252.80;;;;;;5024677;28;20540;-78
2022/12/25 04:51:27;;;;;;;;;;;204.80;2252.80;;;;;;5025723;28;20057;-81
2022/12/25 04:53:53;;;;;;;25.00;14.90;;;204.90;2252.80;;;;;;5031193;28;20293;-81
2022/12/25 04:56:19;;;;;;;24.10;15.18;;;204.90;2252.80;;;;;;5033933;28;20109;-81
2022/12/25 04:58:46;;;;;;;28.63;17.27;;;205.00;2252.80;;;;;;5024478;28;20026;-81
2022/12/25 05:01:14;;;;;;;27.88;17.95;;;205.00;2252.80;;;;;;5023502;28;20083;-81
2022/12/25 05:03:39;;;;;;;32.85;18.95;;;205.00;2252.80;;;;;;5036560;28;20022;-81
2022/12/25 05:06:05;;;;;;;;;;;205.10;2252.80;;;;;;5019514;28;20025;-80
2022/12/25 05:08:33;;;;;;;41.60;15.32;;;205.10;2252.80;;;;;;5026410;28;19906;-81
2022/12/25 05:10:58;;;;;;;36.15;16.05;;;204.90;2252.80;;;;;;5019943;28;20056;-79
2022/12/25 05:13:24;;;;;;;;;;;204.90;2252.80;;;;;;5021903;28;20026;-81
2022/12/25 05:15:50;;;;;;;43.08;19.35;;;204.90;2252.80;;;;;;5013883;28;20408;-78
2022/12/25 05:18:16;;;;;;;42.17;16.20;;;204.80;2252.80;;;;;;5019454;28;20821;-78
2022/12/25 05:20:42;;;;;;;;;;;204.90;2252.80;;;;;;5015697;28;20108;-81
2022/12/25 05:23:10;;;;;;;26.77;13.88;;;204.90;2252.80;;;;;;5024466;28;19995;-81
2022/12/25 05:25:39;;;;;;;29.65;14.88;;;204.90;2252.80;;;;;;5023056;28;20030;-79
2022/12/25 05:28:05;;;;;;;23.67;14.52;;;204.90;2252.80;;;;;;5023570;28;20359;-81
2022/12/25 05:30:30;;;;;;;;;;;205.00;2252.80;;;;;;5018767;28;20033;-82
2022/12/25 05:32:56;;;;;;;33.15;13.82;;;205.10;2252.80;;;;;;5019440;28;19913;-81
2022/12/25 05:35:21;;;;;;;;;;;204.90;2252.80;;;;;;5020594;28;20026;-82
2022/12/25 05:37:47;;;;;;;23.00;13.48;;;204.80;2252.80;;;;;;5020942;28;19976;-80
2022/12/25 05:40:13;;;;;;;;;;;204.80;2252.80;;;;;;5024899;28;20635;-81
2022/12/25 05:42:38;;;;;;;23.85;15.52;;;204.80;2252.80;;;;;;5027238;28;19904;-80
2022/12/25 05:45:04;;;;;;;;;;;204.80;2252.80;;;;;;5025313;28;20488;-78
2022/12/25 05:47:30;;;;;;;22.15;14.60;;;204.80;2252.80;;;;;;5023219;28;19912;-81
2022/12/25 05:49:55;;;;;;;;;;;180.10;2252.80;;;;;;5021760;28;20116;-80
2022/12/25 05:52:21;;;;;;;26.35;14.90;;;180.10;2252.80;;;;;;5023508;28;20320;-79
2022/12/25 05:54:47;;;;;;;;;;;180.00;2252.80;;;;;;5016888;28;20049;-78
2022/12/25 05:57:12;;;;;;;30.58;17.02;;;179.90;2252.80;;;;;;5021370;28;19913;-77
2022/12/25 05:59:38;;;;;;;;;;;179.70;2252.80;;;;;;5021900;28;20076;-81
2022/12/25 06:02:04;;;;;;;29.38;15.65;;;179.70;2252.80;;;;;;5023631;28;19905;-79
2022/12/25 06:04:29;;;;;;;;;;;179.50;2252.80;;;;;;5027381;28;20037;-81
2022/12/25 06:06:55;;;;;;;26.83;15.20;;;179.40;2252.80;;;;;;5014569;28;20346;-82
2022/12/25 06:09:20;;;;;;;;;;;179.20;2252.80;;;;;;5025132;28;20394;-79
2022/12/25 06:11:46;;;;;;;18.77;12.45;;;154.40;2252.80;;;;;;5027099;28;20341;-81
2022/12/25 06:14:13;;;;;;;;;;;154.40;2252.80;;;;;;5022881;28;20079;-80
2022/12/25 06:16:39;;;;;;;20.88;13.00;;;154.40;2252.80;;;;;;5015277;28;19918;-80
2022/12/25 06:19:04;;;;;;;;;;;154.50;2252.80;;;;;;5024514;28;20486;-81
2022/12/25 06:21:30;;;;;;;24.17;12.75;;;179.20;2252.80;;;;;;5019397;28;19906;-81
2022/12/25 06:23:56;;;;;;;;;;;179.20;2252.80;;;;;;5027964;28;20418;-81
2022/12/25 06:26:21;;;;;;;20.85;12.48;;;179.30;2252.80;;;;;;5016340;28;19951;-78
2022/12/25 06:28:47;;;;;;;;;;;179.30;2252.80;;;;;;5024609;28;20437;-78
2022/12/25 06:31:18;;;;;;;19.73;13.02;;;179.30;2252.80;;;;;;5021195;28;19912;-77
2022/12/25 06:33:44;;;;;;;23.02;12.90;;;179.30;2252.80;;;;;;5019176;28;20029;-81
2022/12/25 06:36:12;;;;;;;;;;;179.20;2252.80;;;;;;5018492;28;20029;-78
2022/12/25 06:38:37;;;;;;;22.33;13.18;;;179.20;2252.80;;;;;;5024274;28;20063;-81
2022/12/25 06:41:07;;;;;;;;;;;154.50;2252.80;;;;;;5023708;28;20068;-78
2022/12/25 06:43:33;;;;;;;20.58;13.88;;;154.50;2252.80;;;;;;5015291;28;19905;-82
2022/12/25 06:46:03;;;;;;;;;;;154.40;2252.80;;;;;;5029054;28;20028;-84
2022/12/25 06:48:28;;;;;;;27.15;17.48;;;154.30;2252.80;;;;;;5019480;28;19912;-78
2022/12/25 06:50:54;;;;;;;;;;;154.20;2252.80;;;;;;5024846;28;20025;-80
2022/12/25 06:53:20;;;;;;;28.02;16.90;;;154.40;2252.80;;;;;;5038374;28;19959;-80
2022/12/25 06:55:45;;;;;;;;;;;179.30;2252.80;;;;;;5014596;28;20414;-81
2022/12/25 06:58:11;;;;;;;24.88;15.85;;;179.50;2252.80;;;;;;5024859;28;19909;-81
2022/12/25 07:00:37;;;;;;;;;;;179.60;2252.80;;;;;;5028096;28;20038;-82
2022/12/25 07:03:03;;;;;;;41.83;23.45;;;179.80;2252.80;;;;;;5023970;28;19909;-79
2022/12/25 07:05:29;;;;;;;34.90;21.52;;;179.90;2252.80;;;;;;5027703;28;20052;-79
2022/12/25 07:07:54;;;;;;;;;;;179.90;2252.80;;;;;;5029559;28;20026;-78
2022/12/25 07:10:20;;;;;;;88.63;44.58;;;180.00;2252.80;;;;;;5024754;28;19909;-80
2022/12/25 07:12:45;;;;;;;;;;;180.00;2252.80;;;;;;5022850;28;20037;-79
2022/12/25 07:15:11;;;;;;;29.98;19.45;;;180.00;2252.80;;;;;;5057790;28;19917;-81
2022/12/25 07:17:37;;;;;;;;;;;179.80;2252.80;;;;;;5023729;28;20107;-82
2022/12/25 07:20:03;;;;;;;57.08;30.58;;;179.80;2252.80;;;;;;5029478;28;20287;-77
2022/12/25 07:22:29;;;;;;;;;;;179.80;2252.80;;;;;;5023863;28;20073;-82
2022/12/25 07:24:54;;;;;;;41.25;24.65;;;180.00;2252.80;;;;;;5027602;28;20335;-77
2022/12/25 07:27:20;;;;;;;;;;;179.80;2252.80;;;;;;5015798;28;20026;-79
2022/12/25 07:29:46;;;;;;;40.25;21.05;;;179.90;2252.80;;;;;;5016671;28;19909;-78
2022/12/25 07:32:11;;;;;;;;;;;179.80;2252.80;;;;;;5028726;28;20565;-79
2022/12/25 07:34:37;;;;;;;53.67;28.33;;;179.70;2252.80;;;;;;5022784;28;19909;-79
2022/12/25 07:37:02;;;;;;;;;;;179.90;2252.80;;;;;;5017018;28;20129;-80
2022/12/25 07:39:28;;;;;;;68.43;30.27;;;180.10;2252.80;;;;;;5019358;28;20310;-80
2022/12/25 07:41:54;;;;;;;82.35;38.03;;;204.90;2252.80;;;;;;5024740;28;20022;-79
2022/12/25 07:44:20;;;;;;;;;;;205.00;2252.80;;;;;;5023111;28;20487;-79
2022/12/25 07:46:45;;;;;;;58.40;32.65;;;205.10;2252.80;;;;;;5025971;28;19912;-82
2022/12/25 07:49:11;;;;;;;;;;;205.20;2252.80;;;;;;5024561;28;20046;-80
2022/12/25 07:51:37;;;;;;;107.70;54.58;;;205.30;2252.80;;;;;;5024352;28;19960;-78
2022/12/25 07:54:02;;;;;;;;;;;205.40;2252.80;;;;;;5021525;28;20066;-82
2022/12/25 07:56:28;;;;;;;70.28;36.35;;;205.50;2252.80;;;;;;5022300;28;20389;-82
2022/12/25 07:58:54;;;;;;;;;;;205.60;2252.80;;;;;;5029475;28;20021;-82
2022/12/25 08:01:25;;;;;;;46.53;27.83;;;205.60;2252.80;;;;;;5020690;28;20269;-80
2022/12/25 08:03:53;;;;;;;46.28;29.58;;;205.50;2252.80;;;;;;5026213;28;20095;-83
2022/12/25 08:06:21;;;;;;;61.13;33.08;;;205.70;2252.80;;;;;;5026555;28;20108;-79
2022/12/25 08:08:47;;;;;;;82.78;41.80;;;230.40;2252.80;;;;;;5019194;28;20032;-78
2022/12/25 08:11:13;;;;;;;58.60;36.60;;;230.40;2252.80;;;;;;5024247;28;20026;-81
2022/12/25 08:13:39;;;;;;;69.00;37.83;;;205.70;2252.80;;;;;;5025535;28;20025;-82
2022/12/25 08:16:08;;;;;;;46.72;28.55;;;205.60;2252.80;;;;;;5021236;28;20041;-78
2022/12/25 08:18:35;;;;;;;35.85;23.70;;;205.70;2252.80;;;;;;5023501;28;20029;-80
2022/12/25 08:21:04;;;;;;;34.97;21.73;;;230.40;2252.80;;;;;;5024465;28;20490;-85
2022/12/25 08:23:32;;;;;;;41.03;23.08;;;230.50;2252.80;;;;;;5025841;28;20048;-76
2022/12/25 08:25:59;;;;;;;70.47;36.17;;;230.70;2252.80;;;;;;5027058;28;20038;-78
2022/12/25 08:28:25;;;;;;;68.85;34.22;;;230.90;2252.80;;;;;;5021938;28;20018;-76
2022/12/25 08:30:51;;;;;;;53.47;28.80;;;230.90;2252.80;;;;;;5019107;28;20037;-75
2022/12/25 08:33:16;;;;;;;41.55;25.00;;;230.90;2252.80;;;;;;5028029;28;20123;-75
2022/12/25 08:35:42;;;;;;;;;;;230.80;2252.80;;;;;;5024049;28;20037;-77
2022/12/25 08:38:08;;;;;;;43.83;26.35;;;230.90;2252.80;;;;;;5023990;28;19936;-74
2022/12/25 08:40:33;;;;;;;47.92;26.88;;;231.00;2252.80;;;;;;5029141;28;20061;-75
2022/12/25 08:42:59;;;;;;;;;;;231.20;2252.80;;;;;;5027748;28;20033;-80
2022/12/25 08:45:25;;;;;;;41.13;24.45;;;231.10;2252.80;;;;;;5024394;28;20384;-77
2022/12/25 08:47:54;;;;;;;;;;;231.20;2252.80;;;;;;5026742;28;20038;-75
2022/12/25 08:50:21;;;;;;;29.95;20.58;;;231.20;2252.80;;;;;;5038256;28;20274;-77
2022/12/25 08:52:46;;;;;;;36.38;21.83;;;231.20;2252.80;;;;;;5027495;28;20490;-75
2022/12/25 08:55:12;;;;;;;35.47;22.42;;;231.20;2252.80;;;;;;5020983;28;20056;-76
2022/12/25 08:57:38;;;;;;;;;;;231.30;2252.80;;;;;;5027635;28;20461;-76
2022/12/25 09:00:04;;;;;;;37.67;25.35;;;256.00;2252.80;;;;;;5067017;28;19905;-80
2022/12/25 09:02:30;;;;;;;31.92;21.15;;;256.20;2252.80;;;;;;5027075;28;20079;-75
2022/12/25 09:04:56;;;;;;;30.52;20.35;;;256.30;2252.80;;;;;;5021047;28;20038;-76
2022/12/25 09:07:22;;;;;;;30.10;21.48;;;256.50;2252.80;;;;;;5033626;28;20025;-76
2022/12/25 09:09:47;;;;;;;31.92;22.10;;;256.50;2252.80;;;;;;5025323;28;20065;-75
2022/12/25 09:12:13;;;;;;;;;;;256.50;2252.80;;;;;;5020450;28;20080;-77
2022/12/25 09:14:39;;;;;;;37.08;25.35;;;256.50;2252.80;;;;;;5063684;28;19951;-77
2022/12/25 09:17:04;;;;;;;;;;;256.60;2252.80;;;;;;5031670;28;20063;-76
2022/12/25 09:19:30;;;;;;;42.10;26.92;;;256.50;2252.80;;;;;;5026452;28;19921;-75
2022/12/25 09:21:56;;;;;;;45.28;27.52;;;256.60;2252.80;;;;;;5025463;28;20084;-74
2022/12/25 09:24:22;;;;;;;;;;;256.80;2252.80;;;;;;5023171;28;20129;-75
2022/12/25 09:26:47;;;;;;;32.50;21.90;;;256.90;2252.80;;;;;;5033608;28;20039;-74
2022/12/25 09:29:15;;;;;;;;;;;256.80;2252.80;;;;;;5024225;28;20022;-75
2022/12/25 09:31:41;;;;;;;48.80;32.55;;;281.60;2278.40;;;;;;5028726;28;20369;-75
2022/12/25 09:34:09;;;;;;;45.65;30.85;;;256.90;2252.80;;;;;;5029561;28;20033;-74
2022/12/25 09:36:34;;;;;;;49.05;31.33;;;256.90;2252.80;;;;;;5027606;28;20076;-74
2022/12/25 09:39:00;;;;;;;65.50;40.17;;;256.90;2252.80;;;;;;5026549;28;20117;-75
2022/12/25 09:41:27;;;;;;;;;;;281.70;2278.40;;;;;;5020867;28;20032;-75
2022/12/25 09:44:01;;;;;;;55.67;33.07;;;281.80;2278.40;;;;;;5031463;28;19905;-75
2022/12/25 09:46:27;;;;;;;50.10;32.50;;;281.60;2278.40;;;;;;5023689;28;20026;-75
2022/12/25 09:49:09;;;;;;;67.10;40.72;;;256.90;2252.80;;;;;;5028250;28;20174;-78
2022/12/25 09:51:38;;;;;;;54.00;34.40;;;256.90;2252.80;;;;;;5043436;28;20030;-77
2022/12/25 09:54:14;;;;;;;58.05;34.28;;;256.90;2252.80;;;;;;5041287;28;20050;-78
2022/12/25 09:56:40;;;;;;;47.72;30.58;;;256.90;2252.80;;;;;;5027525;28;20087;-78
2022/12/25 09:59:20;;;;;;;53.47;34.25;;;281.60;2278.40;;;;;;5019502;28;20022;-77
2022/12/25 10:02:11;;;;;;;50.95;32.40;;;281.60;2278.40;;;;;;5035828;28;20041;-78
2022/12/25 10:05:07;;;;;;;60.13;34.70;;;281.60;2278.40;;;;;;5022854;28;20482;-76
2022/12/25 10:08:11;;;;;;;52.90;34.58;;;281.60;2278.40;;;;;;5026280;28;20018;-78
2022/12/25 10:11:07;;;;;;;61.55;37.38;;;281.60;2278.40;;;;;;5036647;28;20530;-78
2022/12/25 10:14:08;;;;;;;67.82;36.92;;;281.70;2278.40;;;;;;5029932;28;20018;-80
2022/12/25 10:16:55;;;;;;;61.60;36.63;;;281.80;2278.40;;;;;;4995398;28;20077;-81
2022/12/25 10:19:54;;;;;;;54.05;32.70;;;282.00;2278.40;;;;;;4996388;28;20058;-78
2022/12/25 10:22:28;;;;;;;56.78;34.83;;;282.20;2278.40;;;;;;4992122;28;20034;-78
2022/12/25 10:24:56;;;;;;;57.75;31.95;;;282.50;2278.40;;;;;;5012321;28;20033;-77
2022/12/25 10:27:30;;;;;;;42.05;27.67;;;307.20;2304.00;;;;;;4995299;28;20041;-77
2022/12/25 10:29:55;;;;;;;49.35;33.40;;;307.40;2304.00;;;;;;4988479;28;20110;-79
2022/12/25 10:32:22;;;;;;;56.20;33.85;;;307.80;2304.00;;;;;;5009634;28;20508;-77
2022/12/25 10:34:48;;;;;;;57.03;36.65;;;307.90;2304.00;;;;;;4995019;28;20521;-76
2022/12/25 10:37:14;;;;;;;56.28;34.25;;;308.10;2304.00;;;;;;4991467;28;20502;-78
2022/12/25 10:39:42;;;;;;;45.05;30.73;;;332.80;2329.60;;;;;;5011635;28;20092;-77
2022/12/25 10:42:34;;;;;;;37.97;24.52;;;332.80;2329.60;;;;;;4996061;28;20058;-78
2022/12/25 10:45:07;;;;;;;43.10;24.00;;;332.90;2329.60;;;;;;4995197;28;20027;-79
2022/12/25 10:47:36;;;;;;;39.53;25.35;;;333.40;2329.60;;;;;;4983312;28;20391;-82
2022/12/25 10:50:17;;;;;;;47.70;29.50;;;333.60;2329.60;;;;;;5007472;28;20418;-79
2022/12/25 10:52:50;;;;;;;55.25;33.42;;;358.50;2329.60;;;;;;5001082;28;20040;-78
2022/12/25 10:55:19;;;;;;;51.83;30.95;;;358.70;2329.60;;;;;;5033550;28;20054;-78
2022/12/25 10:57:46;;;;;;;49.65;29.70;;;358.50;2329.60;;;;;;5019446;28;20049;-78
2022/12/25 11:00:26;;;;;;;51.90;30.88;;;358.50;2329.60;;;;;;5019808;28;20030;-79
2022/12/25 11:02:52;;;;;;;46.25;29.35;;;358.70;2329.60;;;;;;5022515;28;20520;-79
2022/12/25 11:05:28;;;;;;;45.22;29.33;;;358.80;2329.60;;;;;;5018627;28;20022;-79
2022/12/25 11:07:55;;;;;;;47.50;27.65;;;359.20;2329.60;;;;;;5024734;28;20025;-77
2022/12/25 11:10:41;;;;;;;40.25;24.17;;;359.30;2329.60;;;;;;5020566;28;20475;-78
2022/12/25 11:13:19;;;;;;;35.45;22.30;;;359.20;2329.60;;;;;;5022960;28;20046;-78
2022/12/25 11:15:48;;;;;;;41.67;23.95;;;359.10;2329.60;;;;;;5023526;28;20026;-79
2022/12/25 11:18:23;;;;;;;41.45;27.23;;;359.00;2329.60;;;;;;5028266;28;20061;-77
2022/12/25 11:20:50;;;;;;;32.55;19.48;;;384.00;2329.60;;;;;;5025768;28;20431;-77
2022/12/25 11:23:21;;;;;;;32.38;21.42;;;384.10;2329.60;;;;;;5025808;28;20038;-76
2022/12/25 11:26:00;;;;;;;35.38;20.83;;;384.00;2329.60;;;;;;5014145;28;20485;-76
2022/12/25 11:28:28;;;;;;;38.22;24.75;;;384.20;2329.60;;;;;;5018000;28;20385;-76
2022/12/25 11:31:01;;;;;;;39.40;23.92;;;384.10;2329.60;;;;;;5041121;28;20018;-81
2022/12/25 11:33:36;;;;;;;32.58;22.52;;;384.20;2329.60;;;;;;5024357;28;20473;-78
2022/12/25 11:36:11;;;;;;;35.20;22.80;;;384.20;2329.60;;;;;;5022363;28;20030;-78
2022/12/25 11:38:37;;;;;;;33.45;23.35;;;384.10;2329.60;;;;;;5027924;28;20029;-78
2022/12/25 11:41:04;;;;;;;33.65;20.35;;;384.00;2329.60;;;;;;5025356;28;20025;-79
2022/12/25 11:43:47;;;;;;;34.60;19.83;;;384.00;2329.60;;;;;;5022139;28;20593;-82
2022/12/25 11:46:30;;;;;;;36.40;22.75;;;384.20;2329.60;;;;;;5023954;28;20025;-79
2022/12/25 11:49:03;;;;;;;34.05;19.10;;;384.10;2329.60;;;;;;5037258;28;20037;-79
2022/12/25 11:51:34;;;;;;;29.77;19.67;;;359.20;2329.60;;;;;;5019545;28;20033;-80
2022/12/25 11:54:13;;;;;;;32.58;20.17;;;359.10;2329.60;;;;;;5022211;28;20050;-78
2022/12/25 11:56:39;;;;;;;33.85;20.13;;;359.00;2329.60;;;;;;5015890;28;20045;-79
2022/12/25 11:59:20;;;;;;;33.90;20.00;;;359.00;2329.60;;;;;;5021781;28;20081;-78
2022/12/25 12:01:51;;;;;;;32.83;20.27;;;358.90;2329.60;;;;;;5024189;28;20103;-80
2022/12/25 12:04:25;;;;;;;30.70;17.25;;;358.90;2329.60;;;;;;5023293;28;20072;-80
2022/12/25 12:07:26;;;;;;;45.03;29.77;;;358.80;2329.60;;;;;;5019895;28;20092;-80
2022/12/25 12:10:01;;;;;;;29.17;16.52;;;358.80;2329.60;;;;;;5020928;28;20018;-81
2022/12/25 12:12:45;;;;;;;23.85;14.48;;;358.80;2329.60;;;;;;5019431;28;20501;-80
2022/12/25 12:15:27;;;;;;;28.20;15.77;;;358.80;2329.60;;;;;;5029678;28;20030;-81
2022/12/25 12:17:52;;;;;;;32.13;19.05;;;358.80;2329.60;;;;;;5028318;28;20124;-79
2022/12/25 12:20:27;;;;;;;32.78;19.10;;;358.70;2329.60;;;;;;5029942;28;20133;-79
2022/12/25 12:22:53;;;;;;;27.27;18.95;;;358.70;2329.60;;;;;;5036651;28;20084;-79
2022/12/25 12:25:21;;;;;;;28.42;18.55;;;358.60;2329.60;;;;;;5025774;28;20025;-80
2022/12/25 12:27:56;;;;;;;36.20;20.33;;;358.60;2329.60;;;;;;5025885;28;20060;-80
2022/12/25 12:30:24;;;;;;;30.98;21.83;;;358.60;2329.60;;;;;;5031825;28;20064;-79
2022/12/25 12:32:53;;;;;;;39.70;21.55;;;358.70;2329.60;;;;;;5028259;28;20128;-80
2022/12/25 12:35:22;;;;;;;38.05;23.45;;;358.70;2329.60;;;;;;5018506;28;20022;-79
2022/12/25 12:37:52;;;;;;;41.65;23.75;;;358.60;2329.60;;;;;;5021744;28;20030;-80
2022/12/25 12:40:24;;;;;;;48.55;27.08;;;358.60;2329.60;;;;;;5022680;28;20025;-79
2022/12/25 12:42:51;;;;;;;47.78;25.35;;;358.50;2329.60;;;;;;5035690;28;20108;-80
2022/12/25 12:45:25;;;;;;;40.13;24.92;;;358.50;2329.60;;;;;;5027941;28;20026;-79
2022/12/25 12:47:52;;;;;;;46.60;26.02;;;358.50;2329.60;;;;;;5023996;28;20028;-80
2022/12/25 12:50:29;;;;;;;49.22;25.30;;;358.40;2329.60;;;;;;5027910;28;20022;-79
2022/12/25 12:52:55;;;;;;;55.90;27.33;;;358.40;2329.60;;;;;;5023086;28;20032;-79
2022/12/25 12:55:33;;;;;;;53.75;30.25;;;333.70;2329.60;;;;;;5028045;28;20054;-80
2022/12/25 12:58:01;;;;;;;56.90;32.45;;;333.70;2329.60;;;;;;5030941;28;20034;-79
2022/12/25 13:01:13;;;;;;;52.83;30.58;;;333.60;2329.60;;;;;;5029755;28;20029;-78
2022/12/25 13:04:03;;;;;;;55.03;31.90;;;333.60;2329.60;;;;;;5013230;28;20037;-79
2022/12/25 13:07:13;;;;;;;52.03;30.27;;;333.60;2329.60;;;;;;5044130;28;20034;-79
2022/12/25 13:10:02;;;;;;;53.50;31.63;;;333.50;2329.60;;;;;;4993277;28;20035;-79
2022/12/25 13:12:28;;;;;;;45.75;27.60;;;333.40;2329.60;;;;;;4994114;28;20395;-79
2022/12/25 13:14:54;;;;;;;49.75;29.33;;;333.40;2329.60;;;;;;4957284;28;20114;-78
2022/12/25 13:17:24;;;;;;;48.38;28.88;;;333.30;2329.60;;;;;;4977344;28;20117;-80
2022/12/25 13:19:57;;;;;;;54.17;30.42;;;333.40;2329.60;;;;;;4962732;28;20041;-80
2022/12/25 13:22:28;;;;;;;54.53;30.48;;;333.40;2329.60;;;;;;5001549;28;20035;-80
2022/12/25 13:24:57;;;;;;;63.10;35.03;;;333.40;2329.60;;;;;;4980838;28;20089;-81
2022/12/25 13:27:26;;;;;;;70.70;35.88;;;333.40;2329.60;;;;;;4960631;28;20085;-82
2022/12/25 13:29:51;;;;;;;68.40;38.00;;;333.30;2329.60;;;;;;4961636;28;20159;-80
2022/12/25 13:32:24;;;;;;;71.03;37.28;;;333.30;2329.60;;;;;;4969764;28;20478;-78
2022/12/25 13:34:50;;;;;;;72.40;39.05;;;333.20;2329.60;;;;;;4998061;28;20035;-80
2022/12/25 13:37:20;;;;;;;73.43;40.40;;;333.20;2329.60;;;;;;4964048;28;20042;-81
2022/12/25 13:39:48;;;;;;;71.70;40.63;;;333.00;2329.60;;;;;;4962253;28;20034;-83
2022/12/25 13:42:17;;;;;;;68.07;39.03;;;332.90;2329.60;;;;;;4976541;28;20423;-82
2022/12/25 13:45:01;;;;;;;70.88;39.53;;;332.90;2329.60;;;;;;4969704;28;20090;-82
2022/12/25 13:47:38;;;;;;;82.47;43.17;;;332.90;2329.60;;;;;;5011603;28;20091;-81
2022/12/25 13:50:19;;;;;;;85.32;42.63;;;332.90;2329.60;;;;;;5030708;28;20113;-80
2022/12/25 13:52:45;;;;;;;90.80;45.80;;;308.10;2304.00;;;;;;5031459;28;20033;-83
2022/12/25 13:55:17;;;;;;;91.47;44.70;;;308.00;2304.00;;;;;;5030866;28;20046;-84
2022/12/25 13:58:00;;;;;;;99.13;48.08;;;307.90;2304.00;;;;;;5028244;28;20041;-82
2022/12/25 14:00:47;;;;;;;93.22;45.63;;;307.80;2304.00;;;;;;5026787;28;20116;-83
2022/12/25 14:03:17;;;;;;;;;;;307.70;2304.00;;;;;;5029817;28;20033;-82
2022/12/25 14:05:43;;;;;;;90.82;44.88;;;307.60;2304.00;;;;;;5022609;28;19905;-82
2022/12/25 14:08:21;;;;;;;86.20;42.78;;;307.40;2304.00;;;;;;5053298;28;20378;-86
2022/12/25 14:10:50;;;;;;;85.30;44.20;;;307.30;2304.00;;;;;;5023798;28;20052;-79